• Join FlightAware (Why Join?)
  • Login
  • US Flag 
12:42PM EDT


 

Airport Tracker/Info


-or-


 

Live Flight TrackerFlight Track Log ✈ DLH340 ✈ 29-Apr-2012 ✈ EDDF / FRA - LIMJ / GOA

Flight Track Log - Related Links

Times and Time Zones

All times are in EDT time to prevent confusion due to time zone crossing. See the DLH340 flight status page for this flight to view local times or setup timezone preferences in your user account.

Time Position Orientation Groundspeed Altitude Reporting Facility
EDT Latitude Longitude Course Direction KTS MPH feet Rate Location/Type
04:31AM 50.0018 8.5446 178° South  Level Estimated
04:32AM 49.9032 8.5504 178° South  Level Estimated
04:33AM 49.8046 8.5562 178° South  Level Estimated
04:34AM 49.7060 8.5620 178° South  Level Estimated
04:35AM 49.6074 8.5677 178° South  Level Estimated
04:36AM 49.5088 8.5735 178° South  Level Estimated
04:37AM 49.4102 8.5792 178° South  Level Estimated
04:38AM 49.3116 8.5849 178° South  Level Estimated
04:39AM 49.2130 8.5905 178° South  Level Estimated
04:40AM 49.1144 8.5962 178° South  Level Estimated
04:41AM 49.0158 8.6018 178° South  Level Estimated
04:42AM 48.9172 8.6074 178° South  Level Estimated
04:43AM 48.8186 8.6130 178° South  Level Estimated
04:44AM 48.7200 8.6185 178° South  Level Estimated
04:45AM 48.6214 8.6241 178° South  Level Estimated
04:46AM 48.5228 8.6296 178° South  Level Estimated
04:47AM 48.4242 8.6350 178° South  Level Estimated
04:48AM 48.3256 8.6405 178° South  Level Estimated
04:49AM 48.2270 8.6460 178° South  Level Estimated
04:50AM 48.1284 8.6514 178° South  Level Estimated
04:51AM 48.0298 8.6568 178° South  Level Estimated
04:52AM 47.9312 8.6622 178° South  Level Estimated
04:53AM 47.8326 8.6675 178° South  Level Estimated
04:54AM 47.7340 8.6729 178° South  Level Estimated
04:55AM 47.6354 8.6782 178° South  Level Estimated
04:56AM 47.5368 8.6835 178° South  Level Estimated
04:57AM 47.4382 8.6888 178° South  Level Estimated
04:58AM 47.3396 8.6940 178° South  Level Estimated
04:59AM 47.2410 8.6993 178° South  Level Estimated
05:00AM 47.1424 8.7045 178° South  Level Estimated
05:01AM 47.0438 8.7097 178° South  Level Estimated
05:02AM 46.9451 8.7149 178° South  Level Estimated
05:03AM 46.8465 8.7200 178° South  Level Estimated
05:04AM 46.7479 8.7252 178° South  Level Estimated
05:05AM 46.6493 8.7303 178° South  Level Estimated
05:06AM 46.5507 8.7354 178° South  Level Estimated
05:07AM 46.4521 8.7405 178° South  Level Estimated
05:08AM 46.3535 8.7456 178° South  Level Estimated
05:09AM 46.2549 8.7506 178° South  Level Estimated
05:10AM 46.1563 8.7557 178° South  Level Estimated
05:11AM 46.0577 8.7607 178° South  Level Estimated
05:12AM 45.9590 8.7657 178° South  Level Estimated
05:13AM 45.8604 8.7707 178° South  Level Estimated
05:14AM 45.7618 8.7756 178° South  Level Estimated
05:15AM 45.6632 8.7806 178° South  Level Estimated
05:16AM 45.5646 8.7855 178° South  Level Estimated
05:17AM 45.4660 8.7904 178° South  Level Estimated
05:18AM 45.3674 8.7953 178° South  Level Estimated
05:19AM 45.2688 8.8002 178° South  Level Estimated
05:20AM 45.1702 8.8050 178° South  Level Estimated
05:21AM 45.0716 8.8099 178° South  Level Estimated
05:22AM 44.9809 8.8143 178° South  Level Estimated
05:23AM 44.8902 8.8188 178° South  Level Estimated
05:24AM 44.7996 8.8232 178° South  Level Estimated
05:25AM 44.7089 8.8276 178° South  Level Estimated
05:26AM 44.6183 8.8320 178° South  Level Estimated
05:27AM 44.5276 8.8363 178° South  Level Estimated
05:28AM 44.4369 8.8407 178° South  Level Estimated
05:29AM 44.3463 8.8450 358° North  Level Estimated
05:30AM 44.4369 8.8407 178° South  Level Estimated
05:31AM 44.3463 8.8450 358° North  Level Estimated
05:32AM 44.4369 8.8407 178° South  Level Estimated
05:33AM 44.3463 8.8450 358° North  Level Estimated
05:34AM 44.4369 8.8407 178° South  Level Estimated
05:35AM 44.3463 8.8450 358° North  Level Estimated
05:36AM 44.4369 8.8407 178° South  Level Estimated
05:37AM 44.3463 8.8450 358° North  Level Estimated
05:38AM 44.4369 8.8407 178° South  Level Estimated
05:39AM 44.3463 8.8450 358° North  Level Estimated
05:40AM 44.4369 8.8407 178° South  Level Estimated
05:41AM 44.3463 8.8450 358° North  Level Estimated
05:42AM 44.4369 8.8407 178° South  Level Estimated
05:43AM 44.3463 8.8450 358° North  Level Estimated
05:44AM 44.4369 8.8407 178° South  Level Estimated
05:45AM 44.3463 8.8450 358° North  Level Estimated
05:46AM 44.4369 8.8407 178° South  Level Estimated
05:47AM 44.3463 8.8450 358° North  Level Estimated
05:48AM 44.4369 8.8407 358° North  Level Estimated